sensor_id;sensor_type;location;lat;lon;timestamp;P1;durP1;ratioP1;P2;durP2;ratioP2
75892;SDS011;64572;50.950;3.676;2023-02-01T00:01:27;15.32;;;3.92;;
75892;SDS011;64572;50.950;3.676;2023-02-01T00:03:53;26.42;;;5.30;;
75892;SDS011;64572;50.950;3.676;2023-02-01T00:06:19;26.83;;;4.10;;
75892;SDS011;64572;50.950;3.676;2023-02-01T00:08:44;22.77;;;4.75;;
75892;SDS011;64572;50.950;3.676;2023-02-01T00:16:22;22.15;;;3.78;;
75892;SDS011;64572;50.950;3.676;2023-02-01T00:18:50;10.95;;;2.95;;
75892;SDS011;64572;50.950;3.676;2023-02-01T00:21:18;35.88;;;4.93;;
75892;SDS011;64572;50.950;3.676;2023-02-01T00:23:45;21.20;;;4.05;;
75892;SDS011;64572;50.950;3.676;2023-02-01T00:26:14;13.55;;;2.78;;
75892;SDS011;64572;50.950;3.676;2023-02-01T00:28:52;19.50;;;3.35;;
75892;SDS011;64572;50.950;3.676;2023-02-01T00:31:18;23.45;;;3.70;;
75892;SDS011;64572;50.950;3.676;2023-02-01T00:33:46;15.48;;;3.10;;
75892;SDS011;64572;50.950;3.676;2023-02-01T00:36:12;19.20;;;4.07;;
75892;SDS011;64572;50.950;3.676;2023-02-01T00:38:38;15.60;;;3.75;;
75892;SDS011;64572;50.950;3.676;2023-02-01T00:43:35;17.65;;;3.78;;
75892;SDS011;64572;50.950;3.676;2023-02-01T00:46:01;20.60;;;4.60;;
75892;SDS011;64572;50.950;3.676;2023-02-01T00:48:27;13.40;;;3.15;;
75892;SDS011;64572;50.950;3.676;2023-02-01T00:50:53;22.05;;;3.97;;
75892;SDS011;64572;50.950;3.676;2023-02-01T00:53:18;30.02;;;4.70;;
75892;SDS011;64572;50.950;3.676;2023-02-01T00:55:47;23.38;;;3.50;;
75892;SDS011;64572;50.950;3.676;2023-02-01T00:58:13;19.10;;;4.53;;
75892;SDS011;64572;50.950;3.676;2023-02-01T01:00:39;25.20;;;4.97;;
75892;SDS011;64572;50.950;3.676;2023-02-01T01:03:05;26.85;;;5.55;;
75892;SDS011;64572;50.950;3.676;2023-02-01T01:05:47;29.92;;;4.75;;
75892;SDS011;64572;50.950;3.676;2023-02-01T01:08:13;29.73;;;5.75;;
75892;SDS011;64572;50.950;3.676;2023-02-01T01:10:40;27.20;;;4.78;;
75892;SDS011;64572;50.950;3.676;2023-02-01T01:13:06;27.17;;;5.85;;
75892;SDS011;64572;50.950;3.676;2023-02-01T01:15:36;22.50;;;5.05;;
75892;SDS011;64572;50.950;3.676;2023-02-01T01:18:03;24.65;;;4.30;;
75892;SDS011;64572;50.950;3.676;2023-02-01T01:20:29;30.00;;;5.82;;
75892;SDS011;64572;50.950;3.676;2023-02-01T01:22:54;27.58;;;6.15;;
75892;SDS011;64572;50.950;3.676;2023-02-01T01:25:20;29.33;;;6.47;;
75892;SDS011;64572;50.950;3.676;2023-02-01T01:27:46;26.73;;;4.18;;
75892;SDS011;64572;50.950;3.676;2023-02-01T01:30:12;23.58;;;5.05;;
75892;SDS011;64572;50.950;3.676;2023-02-01T01:32:38;25.70;;;5.43;;
75892;SDS011;64572;50.950;3.676;2023-02-01T01:35:04;26.02;;;5.35;;
75892;SDS011;64572;50.950;3.676;2023-02-01T01:37:30;29.38;;;6.28;;
75892;SDS011;64572;50.950;3.676;2023-02-01T01:39:56;31.10;;;6.50;;
75892;SDS011;64572;50.950;3.676;2023-02-01T01:42:22;30.52;;;5.40;;
75892;SDS011;64572;50.950;3.676;2023-02-01T01:47:42;32.08;;;5.82;;
75892;SDS011;64572;50.950;3.676;2023-02-01T01:50:12;28.85;;;4.65;;
75892;SDS011;64572;50.950;3.676;2023-02-01T01:52:41;19.48;;;4.78;;
75892;SDS011;64572;50.950;3.676;2023-02-01T01:55:11;18.25;;;5.13;;
75892;SDS011;64572;50.950;3.676;2023-02-01T01:57:41;17.55;;;3.30;;
75892;SDS011;64572;50.950;3.676;2023-02-01T02:00:10;22.75;;;4.15;;
75892;SDS011;64572;50.950;3.676;2023-02-01T02:02:40;17.25;;;4.00;;
75892;SDS011;64572;50.950;3.676;2023-02-01T02:05:08;15.30;;;4.32;;
75892;SDS011;64572;50.950;3.676;2023-02-01T02:07:35;21.80;;;3.55;;
75892;SDS011;64572;50.950;3.676;2023-02-01T02:10:05;24.42;;;4.75;;
75892;SDS011;64572;50.950;3.676;2023-02-01T02:12:35;22.33;;;2.95;;
75892;SDS011;64572;50.950;3.676;2023-02-01T02:15:04;25.90;;;3.75;;
75892;SDS011;64572;50.950;3.676;2023-02-01T02:20:31;25.63;;;4.83;;
75892;SDS011;64572;50.950;3.676;2023-02-01T02:43:10;21.75;;;2.80;;
75892;SDS011;64572;50.950;3.676;2023-02-01T02:46:06;39.65;;;4.90;;
75892;SDS011;64572;50.950;3.676;2023-02-01T02:49:08;14.77;;;2.72;;
75892;SDS011;64572;50.950;3.676;2023-02-01T02:54:59;15.65;;;2.85;;
75892;SDS011;64572;50.950;3.676;2023-02-01T02:57:36;13.40;;;2.90;;
75892;SDS011;64572;50.950;3.676;2023-02-01T03:00:24;15.65;;;3.13;;
75892;SDS011;64572;50.950;3.676;2023-02-01T03:03:12;14.02;;;2.65;;
75892;SDS011;64572;50.950;3.676;2023-02-01T03:05:57;21.02;;;3.72;;
75892;SDS011;64572;50.950;3.676;2023-02-01T03:08:23;11.30;;;3.17;;
75892;SDS011;64572;50.950;3.676;2023-02-01T03:10:55;25.83;;;4.10;;
75892;SDS011;64572;50.950;3.676;2023-02-01T03:13:26;22.90;;;4.18;;
75892;SDS011;64572;50.950;3.676;2023-02-01T03:16:15;30.60;;;4.43;;
75892;SDS011;64572;50.950;3.676;2023-02-01T03:19:15;21.25;;;4.10;;
75892;SDS011;64572;50.950;3.676;2023-02-01T03:21:53;28.45;;;4.28;;
75892;SDS011;64572;50.950;3.676;2023-02-01T03:24:32;19.83;;;3.50;;
75892;SDS011;64572;50.950;3.676;2023-02-01T03:32:48;29.67;;;5.70;;
75892;SDS011;64572;50.950;3.676;2023-02-01T03:38:09;19.63;;;4.68;;
75892;SDS011;64572;50.950;3.676;2023-02-01T03:40:45;16.60;;;4.00;;
75892;SDS011;64572;50.950;3.676;2023-02-01T03:43:35;17.52;;;4.72;;
75892;SDS011;64572;50.950;3.676;2023-02-01T03:46:33;16.92;;;3.03;;
75892;SDS011;64572;50.950;3.676;2023-02-01T03:49:08;24.25;;;4.20;;
75892;SDS011;64572;50.950;3.676;2023-02-01T03:51:39;23.83;;;4.63;;
75892;SDS011;64572;50.950;3.676;2023-02-01T03:54:06;14.98;;;3.03;;
75892;SDS011;64572;50.950;3.676;2023-02-01T03:56:36;17.02;;;3.38;;
75892;SDS011;64572;50.950;3.676;2023-02-01T04:01:30;14.75;;;3.20;;
75892;SDS011;64572;50.950;3.676;2023-02-01T04:03:56;21.10;;;3.72;;
75892;SDS011;64572;50.950;3.676;2023-02-01T04:06:23;27.50;;;4.60;;
75892;SDS011;64572;50.950;3.676;2023-02-01T04:08:49;25.80;;;3.45;;
75892;SDS011;64572;50.950;3.676;2023-02-01T04:11:15;23.42;;;3.13;;
75892;SDS011;64572;50.950;3.676;2023-02-01T04:13:41;14.65;;;3.17;;
75892;SDS011;64572;50.950;3.676;2023-02-01T04:16:07;18.77;;;3.88;;
75892;SDS011;64572;50.950;3.676;2023-02-01T04:18:33;14.98;;;3.20;;
75892;SDS011;64572;50.950;3.676;2023-02-01T04:20:58;20.98;;;4.00;;
75892;SDS011;64572;50.950;3.676;2023-02-01T04:23:24;20.27;;;4.68;;
75892;SDS011;64572;50.950;3.676;2023-02-01T04:25:49;21.20;;;3.88;;
75892;SDS011;64572;50.950;3.676;2023-02-01T04:28:15;21.73;;;4.07;;
75892;SDS011;64572;50.950;3.676;2023-02-01T04:30:41;19.45;;;3.53;;
75892;SDS011;64572;50.950;3.676;2023-02-01T04:33:06;26.65;;;6.20;;
75892;SDS011;64572;50.950;3.676;2023-02-01T04:35:32;12.00;;;2.85;;
75892;SDS011;64572;50.950;3.676;2023-02-01T04:37:59;22.45;;;3.83;;
75892;SDS011;64572;50.950;3.676;2023-02-01T04:40:24;23.33;;;4.25;;
75892;SDS011;64572;50.950;3.676;2023-02-01T04:42:50;23.38;;;4.07;;
75892;SDS011;64572;50.950;3.676;2023-02-01T04:45:16;23.27;;;4.30;;
75892;SDS011;64572;50.950;3.676;2023-02-01T04:47:41;23.95;;;4.30;;
75892;SDS011;64572;50.950;3.676;2023-02-01T04:50:07;23.60;;;4.75;;
75892;SDS011;64572;50.950;3.676;2023-02-01T04:52:35;18.02;;;3.47;;
75892;SDS011;64572;50.950;3.676;2023-02-01T04:55:02;13.65;;;2.88;;
75892;SDS011;64572;50.950;3.676;2023-02-01T04:57:28;14.60;;;3.58;;
75892;SDS011;64572;50.950;3.676;2023-02-01T04:59:54;17.15;;;3.13;;
75892;SDS011;64572;50.950;3.676;2023-02-01T05:02:20;20.00;;;3.42;;
75892;SDS011;64572;50.950;3.676;2023-02-01T05:04:45;22.00;;;3.45;;
75892;SDS011;64572;50.950;3.676;2023-02-01T05:07:11;18.65;;;4.10;;
75892;SDS011;64572;50.950;3.676;2023-02-01T05:09:37;15.25;;;3.22;;
75892;SDS011;64572;50.950;3.676;2023-02-01T05:12:02;16.42;;;3.30;;
75892;SDS011;64572;50.950;3.676;2023-02-01T05:14:47;13.10;;;2.72;;
75892;SDS011;64572;50.950;3.676;2023-02-01T05:17:14;23.75;;;3.90;;
75892;SDS011;64572;50.950;3.676;2023-02-01T05:19:39;24.10;;;4.38;;
75892;SDS011;64572;50.950;3.676;2023-02-01T05:22:05;11.75;;;3.58;;
75892;SDS011;64572;50.950;3.676;2023-02-01T05:24:30;20.92;;;3.75;;
75892;SDS011;64572;50.950;3.676;2023-02-01T05:26:56;16.60;;;3.75;;
75892;SDS011;64572;50.950;3.676;2023-02-01T05:29:22;24.10;;;3.75;;
75892;SDS011;64572;50.950;3.676;2023-02-01T05:31:47;18.08;;;4.00;;
75892;SDS011;64572;50.950;3.676;2023-02-01T05:34:14;20.85;;;4.07;;
75892;SDS011;64572;50.950;3.676;2023-02-01T05:36:40;16.27;;;3.65;;
75892;SDS011;64572;50.950;3.676;2023-02-01T05:39:06;17.90;;;3.38;;
75892;SDS011;64572;50.950;3.676;2023-02-01T05:41:32;20.27;;;3.25;;
75892;SDS011;64572;50.950;3.676;2023-02-01T05:43:57;37.08;;;5.72;;
75892;SDS011;64572;50.950;3.676;2023-02-01T05:46:23;19.75;;;4.70;;
75892;SDS011;64572;50.950;3.676;2023-02-01T05:48:49;17.52;;;3.97;;
75892;SDS011;64572;50.950;3.676;2023-02-01T05:51:14;28.10;;;4.25;;
75892;SDS011;64572;50.950;3.676;2023-02-01T05:53:40;30.05;;;4.50;;
75892;SDS011;64572;50.950;3.676;2023-02-01T05:56:06;33.65;;;4.85;;
75892;SDS011;64572;50.950;3.676;2023-02-01T05:58:31;10.55;;;3.22;;
75892;SDS011;64572;50.950;3.676;2023-02-01T06:01:00;25.15;;;4.28;;
75892;SDS011;64572;50.950;3.676;2023-02-01T06:03:27;33.70;;;4.68;;
75892;SDS011;64572;50.950;3.676;2023-02-01T06:05:53;24.23;;;4.15;;
75892;SDS011;64572;50.950;3.676;2023-02-01T06:08:18;16.02;;;3.42;;
75892;SDS011;64572;50.950;3.676;2023-02-01T06:10:50;36.83;;;5.32;;
75892;SDS011;64572;50.950;3.676;2023-02-01T06:13:23;22.83;;;4.53;;
75892;SDS011;64572;50.950;3.676;2023-02-01T06:15:49;22.38;;;4.40;;
75892;SDS011;64572;50.950;3.676;2023-02-01T06:18:15;24.85;;;4.65;;
75892;SDS011;64572;50.950;3.676;2023-02-01T06:20:40;21.63;;;5.30;;
75892;SDS011;64572;50.950;3.676;2023-02-01T06:23:06;26.77;;;4.93;;
75892;SDS011;64572;50.950;3.676;2023-02-01T06:25:32;27.33;;;5.15;;
75892;SDS011;64572;50.950;3.676;2023-02-01T06:28:00;29.08;;;4.90;;
75892;SDS011;64572;50.950;3.676;2023-02-01T06:32:51;35.95;;;5.03;;
75892;SDS011;64572;50.950;3.676;2023-02-01T06:35:20;36.85;;;5.47;;
75892;SDS011;64572;50.950;3.676;2023-02-01T06:37:46;33.60;;;5.72;;
75892;SDS011;64572;50.950;3.676;2023-02-01T06:40:11;29.75;;;5.05;;
75892;SDS011;64572;50.950;3.676;2023-02-01T06:42:37;31.83;;;6.18;;
75892;SDS011;64572;50.950;3.676;2023-02-01T06:45:03;31.88;;;6.15;;
75892;SDS011;64572;50.950;3.676;2023-02-01T06:47:31;33.40;;;6.25;;
75892;SDS011;64572;50.950;3.676;2023-02-01T06:49:57;29.27;;;5.07;;
75892;SDS011;64572;50.950;3.676;2023-02-01T06:52:22;23.98;;;4.32;;
75892;SDS011;64572;50.950;3.676;2023-02-01T06:54:48;32.08;;;5.07;;
75892;SDS011;64572;50.950;3.676;2023-02-01T06:57:14;41.03;;;5.07;;
75892;SDS011;64572;50.950;3.676;2023-02-01T06:59:39;22.08;;;4.45;;
75892;SDS011;64572;50.950;3.676;2023-02-01T07:02:05;32.40;;;5.18;;
75892;SDS011;64572;50.950;3.676;2023-02-01T07:04:31;26.45;;;4.85;;
75892;SDS011;64572;50.950;3.676;2023-02-01T07:06:56;31.98;;;5.00;;
75892;SDS011;64572;50.950;3.676;2023-02-01T07:09:22;26.55;;;5.22;;
75892;SDS011;64572;50.950;3.676;2023-02-01T07:11:48;26.58;;;4.20;;
75892;SDS011;64572;50.950;3.676;2023-02-01T07:14:13;41.45;;;6.18;;
75892;SDS011;64572;50.950;3.676;2023-02-01T07:16:39;19.98;;;4.22;;
75892;SDS011;64572;50.950;3.676;2023-02-01T07:19:05;39.65;;;5.78;;
75892;SDS011;64572;50.950;3.676;2023-02-01T07:21:30;36.55;;;5.65;;
75892;SDS011;64572;50.950;3.676;2023-02-01T07:23:57;27.48;;;4.85;;
75892;SDS011;64572;50.950;3.676;2023-02-01T07:26:23;30.17;;;5.30;;
75892;SDS011;64572;50.950;3.676;2023-02-01T07:28:48;28.75;;;5.50;;
75892;SDS011;64572;50.950;3.676;2023-02-01T07:31:15;18.02;;;4.68;;
75892;SDS011;64572;50.950;3.676;2023-02-01T07:33:46;33.03;;;6.05;;
75892;SDS011;64572;50.950;3.676;2023-02-01T07:36:14;27.50;;;4.28;;
75892;SDS011;64572;50.950;3.676;2023-02-01T07:38:41;13.73;;;3.58;;
75892;SDS011;64572;50.950;3.676;2023-02-01T07:41:07;25.58;;;4.82;;
75892;SDS011;64572;50.950;3.676;2023-02-01T07:43:33;37.00;;;7.72;;
75892;SDS011;64572;50.950;3.676;2023-02-01T07:45:59;24.10;;;4.15;;
75892;SDS011;64572;50.950;3.676;2023-02-01T07:48:26;17.55;;;3.78;;
75892;SDS011;64572;50.950;3.676;2023-02-01T07:50:59;21.30;;;4.30;;
75892;SDS011;64572;50.950;3.676;2023-02-01T07:53:32;27.17;;;4.75;;
75892;SDS011;64572;50.950;3.676;2023-02-01T07:55:58;23.27;;;4.55;;
75892;SDS011;64572;50.950;3.676;2023-02-01T07:58:24;25.48;;;4.07;;
75892;SDS011;64572;50.950;3.676;2023-02-01T08:00:51;14.10;;;2.97;;
75892;SDS011;64572;50.950;3.676;2023-02-01T08:03:36;19.20;;;3.58;;
75892;SDS011;64572;50.950;3.676;2023-02-01T08:06:02;16.52;;;3.38;;
75892;SDS011;64572;50.950;3.676;2023-02-01T08:08:29;19.45;;;4.38;;
75892;SDS011;64572;50.950;3.676;2023-02-01T08:10:58;23.17;;;4.15;;
75892;SDS011;64572;50.950;3.676;2023-02-01T08:13:25;24.50;;;3.45;;
75892;SDS011;64572;50.950;3.676;2023-02-01T08:15:51;16.08;;;3.60;;
75892;SDS011;64572;50.950;3.676;2023-02-01T08:18:16;17.85;;;3.85;;
75892;SDS011;64572;50.950;3.676;2023-02-01T08:20:43;19.17;;;4.30;;
75892;SDS011;64572;50.950;3.676;2023-02-01T08:23:11;26.02;;;4.47;;
75892;SDS011;64572;50.950;3.676;2023-02-01T08:25:37;20.20;;;3.67;;
75892;SDS011;64572;50.950;3.676;2023-02-01T08:28:04;28.88;;;3.63;;
75892;SDS011;64572;50.950;3.676;2023-02-01T08:30:30;17.15;;;2.90;;
75892;SDS011;64572;50.950;3.676;2023-02-01T08:32:57;14.35;;;2.97;;
75892;SDS011;64572;50.950;3.676;2023-02-01T08:35:23;17.05;;;3.88;;
75892;SDS011;64572;50.950;3.676;2023-02-01T08:37:51;18.08;;;3.50;;
75892;SDS011;64572;50.950;3.676;2023-02-01T08:40:17;13.05;;;3.10;;
75892;SDS011;64572;50.950;3.676;2023-02-01T08:42:43;15.13;;;3.50;;
75892;SDS011;64572;50.950;3.676;2023-02-01T08:45:16;20.55;;;4.43;;
75892;SDS011;64572;50.950;3.676;2023-02-01T08:47:43;25.00;;;3.35;;
75892;SDS011;64572;50.950;3.676;2023-02-01T08:50:09;11.93;;;2.80;;
75892;SDS011;64572;50.950;3.676;2023-02-01T08:52:35;28.25;;;4.30;;
75892;SDS011;64572;50.950;3.676;2023-02-01T08:55:01;14.05;;;2.95;;
75892;SDS011;64572;50.950;3.676;2023-02-01T08:57:27;17.95;;;3.60;;
75892;SDS011;64572;50.950;3.676;2023-02-01T08:59:52;18.23;;;3.90;;
75892;SDS011;64572;50.950;3.676;2023-02-01T09:02:18;24.95;;;3.03;;
75892;SDS011;64572;50.950;3.676;2023-02-01T09:04:44;21.60;;;3.05;;
75892;SDS011;64572;50.950;3.676;2023-02-01T09:07:09;19.23;;;4.03;;
75892;SDS011;64572;50.950;3.676;2023-02-01T09:09:35;32.72;;;4.25;;
75892;SDS011;64572;50.950;3.676;2023-02-01T09:12:02;10.82;;;3.33;;
75892;SDS011;64572;50.950;3.676;2023-02-01T09:14:28;22.45;;;3.38;;
75892;SDS011;64572;50.950;3.676;2023-02-01T09:16:54;20.70;;;3.15;;
75892;SDS011;64572;50.950;3.676;2023-02-01T09:19:19;34.05;;;4.28;;
75892;SDS011;64572;50.950;3.676;2023-02-01T09:21:45;14.40;;;3.05;;
75892;SDS011;64572;50.950;3.676;2023-02-01T09:24:11;14.45;;;2.63;;
75892;SDS011;64572;50.950;3.676;2023-02-01T09:26:37;18.77;;;3.92;;
75892;SDS011;64572;50.950;3.676;2023-02-01T09:29:03;17.73;;;3.75;;
75892;SDS011;64572;50.950;3.676;2023-02-01T09:33:56;28.45;;;3.75;;
75892;SDS011;64572;50.950;3.676;2023-02-01T09:36:22;17.20;;;2.92;;
75892;SDS011;64572;50.950;3.676;2023-02-01T09:38:49;17.77;;;3.15;;
75892;SDS011;64572;50.950;3.676;2023-02-01T09:44:12;15.80;;;2.78;;
75892;SDS011;64572;50.950;3.676;2023-02-01T09:46:57;15.48;;;2.92;;
75892;SDS011;64572;50.950;3.676;2023-02-01T09:49:32;20.35;;;3.45;;
75892;SDS011;64572;50.950;3.676;2023-02-01T09:52:11;9.88;;;2.65;;
75892;SDS011;64572;50.950;3.676;2023-02-01T09:54:50;14.17;;;4.13;;
75892;SDS011;64572;50.950;3.676;2023-02-01T09:57:24;14.02;;;3.17;;
75892;SDS011;64572;50.950;3.676;2023-02-01T10:00:03;16.42;;;3.30;;
75892;SDS011;64572;50.950;3.676;2023-02-01T10:02:32;24.55;;;3.95;;
75892;SDS011;64572;50.950;3.676;2023-02-01T10:05:03;24.88;;;3.63;;
75892;SDS011;64572;50.950;3.676;2023-02-01T10:08:04;17.30;;;4.40;;
75892;SDS011;64572;50.950;3.676;2023-02-01T10:10:28;16.42;;;2.72;;
75892;SDS011;64572;50.950;3.676;2023-02-01T10:13:27;18.65;;;3.53;;
75892;SDS011;64572;50.950;3.676;2023-02-01T10:21:37;10.70;;;2.30;;
75892;SDS011;64572;50.950;3.676;2023-02-01T10:24:17;17.50;;;3.50;;
75892;SDS011;64572;50.950;3.676;2023-02-01T10:27:02;16.65;;;3.60;;
75892;SDS011;64572;50.950;3.676;2023-02-01T10:29:34;20.05;;;4.10;;
75892;SDS011;64572;50.950;3.676;2023-02-01T10:32:04;26.25;;;2.70;;
75892;SDS011;64572;50.950;3.676;2023-02-01T10:34:40;24.00;;;2.45;;
75892;SDS011;64572;50.950;3.676;2023-02-01T10:37:10;18.37;;;2.73;;
75892;SDS011;64572;50.950;3.676;2023-02-01T10:39:48;9.02;;;2.72;;
75892;SDS011;64572;50.950;3.676;2023-02-01T10:42:24;16.10;;;3.13;;
75892;SDS011;64572;50.950;3.676;2023-02-01T10:44:51;13.82;;;2.30;;
75892;SDS011;64572;50.950;3.676;2023-02-01T10:47:19;21.30;;;3.40;;
75892;SDS011;64572;50.950;3.676;2023-02-01T10:52:48;11.98;;;2.60;;
75892;SDS011;64572;50.950;3.676;2023-02-01T10:55:27;12.38;;;2.70;;
75892;SDS011;64572;50.950;3.676;2023-02-01T10:58:16;14.93;;;2.50;;
75892;SDS011;64572;50.950;3.676;2023-02-01T11:00:44;12.15;;;2.50;;
75892;SDS011;64572;50.950;3.676;2023-02-01T11:03:19;12.82;;;2.25;;
75892;SDS011;64572;50.950;3.676;2023-02-01T11:05:57;16.80;;;3.20;;
75892;SDS011;64572;50.950;3.676;2023-02-01T11:08:23;9.02;;;2.00;;
75892;SDS011;64572;50.950;3.676;2023-02-01T11:10:56;20.15;;;2.72;;
75892;SDS011;64572;50.950;3.676;2023-02-01T11:13:27;17.30;;;2.88;;
75892;SDS011;64572;50.950;3.676;2023-02-01T11:15:55;14.57;;;2.50;;
75892;SDS011;64572;50.950;3.676;2023-02-01T11:18:25;16.38;;;3.45;;
75892;SDS011;64572;50.950;3.676;2023-02-01T11:20:52;16.45;;;3.20;;
75892;SDS011;64572;50.950;3.676;2023-02-01T11:23:21;19.73;;;3.55;;
75892;SDS011;64572;50.950;3.676;2023-02-01T11:28:16;20.30;;;3.13;;
75892;SDS011;64572;50.950;3.676;2023-02-01T11:30:43;10.43;;;1.98;;
75892;SDS011;64572;50.950;3.676;2023-02-01T11:33:16;16.52;;;2.97;;
75892;SDS011;64572;50.950;3.676;2023-02-01T11:35:44;13.25;;;2.38;;
75892;SDS011;64572;50.950;3.676;2023-02-01T11:40:46;11.20;;;2.40;;
75892;SDS011;64572;50.950;3.676;2023-02-01T11:43:17;14.55;;;1.95;;
75892;SDS011;64572;50.950;3.676;2023-02-01T11:45:59;11.88;;;2.70;;
75892;SDS011;64572;50.950;3.676;2023-02-01T11:48:26;13.60;;;2.80;;
75892;SDS011;64572;50.950;3.676;2023-02-01T11:50:57;13.57;;;2.10;;
75892;SDS011;64572;50.950;3.676;2023-02-01T11:59:19;16.70;;;2.47;;
75892;SDS011;64572;50.950;3.676;2023-02-01T12:13:44;20.48;;;2.72;;
75892;SDS011;64572;50.950;3.676;2023-02-01T12:19:16;13.98;;;2.58;;
75892;SDS011;64572;50.950;3.676;2023-02-01T12:21:56;14.35;;;2.63;;
75892;SDS011;64572;50.950;3.676;2023-02-01T12:35:47;10.18;;;1.83;;
75892;SDS011;64572;50.950;3.676;2023-02-01T12:38:21;11.20;;;2.08;;
75892;SDS011;64572;50.950;3.676;2023-02-01T12:43:55;13.35;;;2.15;;
75892;SDS011;64572;50.950;3.676;2023-02-01T12:49:12;11.63;;;2.40;;
75892;SDS011;64572;50.950;3.676;2023-02-01T12:51:41;14.05;;;2.05;;
75892;SDS011;64572;50.950;3.676;2023-02-01T12:56:59;11.00;;;1.77;;
75892;SDS011;64572;50.950;3.676;2023-02-01T13:04:34;17.38;;;2.45;;
75892;SDS011;64572;50.950;3.676;2023-02-01T13:07:12;10.48;;;2.60;;
75892;SDS011;64572;50.950;3.676;2023-02-01T13:09:43;10.23;;;2.42;;
75892;SDS011;64572;50.950;3.676;2023-02-01T13:12:19;13.65;;;2.20;;
75892;SDS011;64572;50.950;3.676;2023-02-01T13:15:12;14.23;;;2.30;;
75892;SDS011;64572;50.950;3.676;2023-02-01T13:17:48;7.80;;;1.80;;
75892;SDS011;64572;50.950;3.676;2023-02-01T13:22:46;16.83;;;2.35;;
75892;SDS011;64572;50.950;3.676;2023-02-01T13:28:06;11.93;;;2.53;;
75892;SDS011;64572;50.950;3.676;2023-02-01T13:30:48;6.97;;;1.88;;
75892;SDS011;64572;50.950;3.676;2023-02-01T13:36:08;11.95;;;2.33;;
75892;SDS011;64572;50.950;3.676;2023-02-01T13:44:11;12.30;;;2.47;;
75892;SDS011;64572;50.950;3.676;2023-02-01T13:46:40;7.95;;;1.88;;
75892;SDS011;64572;50.950;3.676;2023-02-01T13:49:13;18.20;;;2.05;;
75892;SDS011;64572;50.950;3.676;2023-02-01T13:51:45;13.15;;;1.77;;
75892;SDS011;64572;50.950;3.676;2023-02-01T13:56:55;10.60;;;2.00;;
75892;SDS011;64572;50.950;3.676;2023-02-01T13:59:46;12.05;;;2.35;;
75892;SDS011;64572;50.950;3.676;2023-02-01T14:05:09;12.32;;;2.35;;
75892;SDS011;64572;50.950;3.676;2023-02-01T14:07:36;11.60;;;2.25;;
75892;SDS011;64572;50.950;3.676;2023-02-01T14:13:05;10.05;;;2.30;;
75892;SDS011;64572;50.950;3.676;2023-02-01T14:21:21;19.27;;;3.67;;
75892;SDS011;64572;50.950;3.676;2023-02-01T14:23:53;15.63;;;2.50;;
75892;SDS011;64572;50.950;3.676;2023-02-01T14:31:41;18.30;;;3.22;;
75892;SDS011;64572;50.950;3.676;2023-02-01T14:36:42;14.63;;;2.25;;
75892;SDS011;64572;50.950;3.676;2023-02-01T14:39:21;12.50;;;2.20;;
75892;SDS011;64572;50.950;3.676;2023-02-01T14:41:52;10.43;;;2.35;;
75892;SDS011;64572;50.950;3.676;2023-02-01T14:44:31;12.10;;;1.98;;
75892;SDS011;64572;50.950;3.676;2023-02-01T14:50:02;14.68;;;2.83;;
75892;SDS011;64572;50.950;3.676;2023-02-01T14:52:33;20.90;;;3.33;;
75892;SDS011;64572;50.950;3.676;2023-02-01T14:55:09;21.60;;;3.08;;
75892;SDS011;64572;50.950;3.676;2023-02-01T14:57:39;17.08;;;3.42;;
75892;SDS011;64572;50.950;3.676;2023-02-01T15:00:29;20.08;;;4.13;;
75892;SDS011;64572;50.950;3.676;2023-02-01T15:02:55;14.50;;;2.83;;
75892;SDS011;64572;50.950;3.676;2023-02-01T15:05:40;19.67;;;2.80;;
75892;SDS011;64572;50.950;3.676;2023-02-01T15:08:14;15.57;;;3.13;;
75892;SDS011;64572;50.950;3.676;2023-02-01T15:10:45;13.90;;;2.83;;
75892;SDS011;64572;50.950;3.676;2023-02-01T15:13:23;9.65;;;2.13;;
75892;SDS011;64572;50.950;3.676;2023-02-01T15:16:01;5.97;;;1.65;;
75892;SDS011;64572;50.950;3.676;2023-02-01T15:18:37;11.50;;;2.17;;
75892;SDS011;64572;50.950;3.676;2023-02-01T15:21:04;17.23;;;2.88;;
75892;SDS011;64572;50.950;3.676;2023-02-01T15:23:31;22.10;;;3.28;;
75892;SDS011;64572;50.950;3.676;2023-02-01T15:25:57;20.33;;;3.88;;
75892;SDS011;64572;50.950;3.676;2023-02-01T15:28:24;13.52;;;2.63;;
75892;SDS011;64572;50.950;3.676;2023-02-01T15:30:58;16.45;;;2.33;;
75892;SDS011;64572;50.950;3.676;2023-02-01T15:33:29;17.50;;;3.63;;
75892;SDS011;64572;50.950;3.676;2023-02-01T15:36:17;15.98;;;2.65;;
75892;SDS011;64572;50.950;3.676;2023-02-01T15:38:43;16.58;;;3.50;;
75892;SDS011;64572;50.950;3.676;2023-02-01T15:41:11;13.82;;;3.15;;
75892;SDS011;64572;50.950;3.676;2023-02-01T15:46:21;10.60;;;2.17;;
75892;SDS011;64572;50.950;3.676;2023-02-01T15:48:56;17.85;;;3.38;;
75892;SDS011;64572;50.950;3.676;2023-02-01T15:51:25;30.85;;;4.22;;
75892;SDS011;64572;50.950;3.676;2023-02-01T15:53:58;9.45;;;2.47;;
75892;SDS011;64572;50.950;3.676;2023-02-01T15:56:34;18.85;;;3.13;;
75892;SDS011;64572;50.950;3.676;2023-02-01T15:59:02;17.08;;;3.47;;
75892;SDS011;64572;50.950;3.676;2023-02-01T16:01:37;15.50;;;2.83;;
75892;SDS011;64572;50.950;3.676;2023-02-01T16:06:47;13.52;;;3.42;;
75892;SDS011;64572;50.950;3.676;2023-02-01T16:09:21;12.02;;;2.85;;
75892;SDS011;64572;50.950;3.676;2023-02-01T16:14:25;15.75;;;2.90;;
75892;SDS011;64572;50.950;3.676;2023-02-01T16:16:52;14.32;;;2.55;;
75892;SDS011;64572;50.950;3.676;2023-02-01T16:19:21;10.55;;;3.45;;
75892;SDS011;64572;50.950;3.676;2023-02-01T16:21:49;23.77;;;4.18;;
75892;SDS011;64572;50.950;3.676;2023-02-01T16:24:14;25.50;;;3.72;;
75892;SDS011;64572;50.950;3.676;2023-02-01T16:26:40;17.55;;;3.00;;
75892;SDS011;64572;50.950;3.676;2023-02-01T16:29:05;16.70;;;2.67;;
75892;SDS011;64572;50.950;3.676;2023-02-01T16:31:35;21.10;;;3.58;;
75892;SDS011;64572;50.950;3.676;2023-02-01T16:34:03;14.00;;;3.67;;
75892;SDS011;64572;50.950;3.676;2023-02-01T16:36:31;9.93;;;2.75;;
75892;SDS011;64572;50.950;3.676;2023-02-01T16:38:57;16.05;;;2.80;;
75892;SDS011;64572;50.950;3.676;2023-02-01T16:41:23;21.92;;;4.75;;
75892;SDS011;64572;50.950;3.676;2023-02-01T16:43:51;20.58;;;3.75;;
75892;SDS011;64572;50.950;3.676;2023-02-01T16:46:18;16.52;;;3.13;;
75892;SDS011;64572;50.950;3.676;2023-02-01T16:48:57;19.02;;;3.72;;
75892;SDS011;64572;50.950;3.676;2023-02-01T16:51:25;13.18;;;2.75;;
75892;SDS011;64572;50.950;3.676;2023-02-01T16:53:54;15.45;;;3.47;;
75892;SDS011;64572;50.950;3.676;2023-02-01T16:56:21;18.20;;;3.10;;
75892;SDS011;64572;50.950;3.676;2023-02-01T16:58:48;16.30;;;2.92;;
75892;SDS011;64572;50.950;3.676;2023-02-01T17:01:15;20.08;;;3.25;;
75892;SDS011;64572;50.950;3.676;2023-02-01T17:03:43;23.35;;;3.92;;
75892;SDS011;64572;50.950;3.676;2023-02-01T17:06:11;19.77;;;4.25;;
75892;SDS011;64572;50.950;3.676;2023-02-01T17:08:40;16.77;;;2.42;;
75892;SDS011;64572;50.950;3.676;2023-02-01T17:11:07;11.40;;;3.33;;
75892;SDS011;64572;50.950;3.676;2023-02-01T17:16:06;13.48;;;2.65;;
75892;SDS011;64572;50.950;3.676;2023-02-01T17:19:10;22.30;;;4.40;;
75892;SDS011;64572;50.950;3.676;2023-02-01T17:21:41;28.60;;;3.85;;
75892;SDS011;64572;50.950;3.676;2023-02-01T17:24:19;15.93;;;3.05;;
75892;SDS011;64572;50.950;3.676;2023-02-01T17:26:47;18.48;;;3.03;;
75892;SDS011;64572;50.950;3.676;2023-02-01T17:29:15;25.10;;;4.57;;
75892;SDS011;64572;50.950;3.676;2023-02-01T17:31:42;16.42;;;3.58;;
75892;SDS011;64572;50.950;3.676;2023-02-01T17:34:11;20.10;;;2.80;;
75892;SDS011;64572;50.950;3.676;2023-02-01T17:36:39;21.08;;;4.50;;